Time,TemperatureF,DewpointF,PressureIn,WindDirection,WindDirectionDegrees,WindSpeedMPH,WindSpeedGustMPH,Humidity,HourlyPrecipIn,Conditions,Clouds,dailyrainin,SoftwareType,DateUTC
2013-02-08 00:00:00,64.3,59.0,30.03,SSW,210,0.0,0.0,83,0.00,,,0.00,Wunderground v.1.15,2013-02-07 13:00:00,
2013-02-08 00:05:00,64.1,59.2,30.03,SSW,210,0.0,0.0,84,0.00,,,0.00,Wunderground v.1.15,2013-02-07 13:05:00,
2013-02-08 00:11:00,64.1,59.2,30.03,North,-999,0.0,0.0,84,0.00,,,-99.99,WeatherLink 5.9.3,2013-02-07 13:11:00,
2013-02-08 00:16:00,63.5,58.9,30.03,SSW,210,0.0,0.0,85,0.00,,,0.00,Wunderground v.1.15,2013-02-07 13:16:00,
2013-02-08 00:21:00,63.4,59.1,30.03,SSW,210,0.0,0.0,86,0.00,,,0.00,Wunderground v.1.15,2013-02-07 13:21:00,
2013-02-08 00:26:00,63.2,58.9,30.03,SW,216,0.0,0.0,86,0.00,,,0.00,Wunderground v.1.15,2013-02-07 13:26:00,
2013-02-08 00:32:00,63.2,59.3,30.03,SW,215,0.0,0.0,87,0.00,,,0.00,Wunderground v.1.15,2013-02-07 13:32:00,
2013-02-08 00:37:00,63.2,59.3,30.03,SW,216,0.0,0.0,87,0.00,,,0.00,Wunderground v.1.15,2013-02-07 13:37:00,
2013-02-08 00:43:00,63.1,59.2,30.03,SW,214,0.0,0.0,87,0.00,,,0.00,Wunderground v.1.15,2013-02-07 13:43:00,
2013-02-08 00:48:00,63.1,59.2,30.02,SW,214,0.0,0.0,87,0.00,,,0.00,Wunderground v.1.15,2013-02-07 13:48:00,
2013-02-08 00:53:00,63.0,59.1,30.02,SW,214,0.0,0.0,87,0.00,,,0.00,Wunderground v.1.15,2013-02-07 13:53:00,
2013-02-08 00:59:00,62.9,59.0,30.02,SW,214,0.0,0.0,87,0.00,,,0.00,Wunderground v.1.15,2013-02-07 13:59:00,
2013-02-08 01:04:00,62.6,58.7,30.02,SW,214,0.0,0.0,87,0.00,,,0.00,Wunderground v.1.15,2013-02-07 14:04:00,
2013-02-08 01:11:00,62.6,58.7,30.02,North,-999,0.0,0.0,87,0.00,,,-99.99,WeatherLink 5.9.3,2013-02-07 14:11:00,
2013-02-08 01:16:00,61.9,58.0,30.02,SW,214,0.0,0.0,87,0.00,,,0.00,Wunderground v.1.15,2013-02-07 14:16:00,
2013-02-08 01:21:00,61.7,58.1,30.02,SW,214,0.0,0.0,88,0.00,,,0.00,Wunderground v.1.15,2013-02-07 14:21:00,
2013-02-08 01:26:00,61.6,58.0,30.01,SW,215,0.0,0.0,88,0.00,,,0.00,Wunderground v.1.15,2013-02-07 14:26:00,
2013-02-08 01:32:00,61.4,58.1,30.02,SW,214,0.0,0.0,89,0.00,,,0.00,Wunderground v.1.15,2013-02-07 14:32:00,
2013-02-08 01:37:00,61.3,58.3,30.01,SW,214,0.0,0.0,90,0.00,,,0.00,Wunderground v.1.15,2013-02-07 14:37:00,
2013-02-08 01:43:00,61.0,57.7,30.01,SW,214,0.0,0.0,89,0.00,,,0.00,Wunderground v.1.15,2013-02-07 14:43:00,
2013-02-08 01:48:00,60.7,57.4,30.01,SW,214,0.0,0.0,89,0.00,,,0.00,Wunderground v.1.15,2013-02-07 14:48:00,
2013-02-08 01:53:00,60.7,57.7,30.01,SW,214,0.0,0.0,90,0.00,,,0.00,Wunderground v.1.15,2013-02-07 14:53:00,
2013-02-08 01:58:00,60.8,58.2,30.01,West,280,0.0,0.0,91,0.00,,,0.00,Wunderground v.1.15,2013-02-07 14:58:00,
2013-02-08 02:04:00,60.8,58.2,30.01,West,281,0.0,0.0,91,0.00,,,0.00,Wunderground v.1.15,2013-02-07 15:04:00,
2013-02-08 02:09:00,60.6,58.0,30.01,West,281,0.0,0.0,91,0.00,,,0.00,Wunderground v.1.15,2013-02-07 15:09:00,
2013-02-08 02:14:00,60.7,58.1,30.01,West,280,0.0,0.0,91,0.00,,,0.00,Wunderground v.1.15,2013-02-07 15:14:00,
2013-02-08 02:19:00,60.6,58.0,30.01,West,280,0.0,0.0,91,0.00,,,0.00,Wunderground v.1.15,2013-02-07 15:19:00,
2013-02-08 02:24:00,60.3,57.7,30.01,West,281,0.0,0.0,91,0.00,,,0.00,Wunderground v.1.15,2013-02-07 15:24:00,
2013-02-08 02:29:00,60.1,57.5,30.00,West,280,0.0,0.0,91,0.00,,,0.00,Wunderground v.1.15,2013-02-07 15:29:00,
2013-02-08 02:34:00,60.3,58.0,30.00,West,280,0.0,0.0,92,0.00,,,0.00,Wunderground v.1.15,2013-02-07 15:34:00,
2013-02-08 02:39:00,60.3,58.0,30.00,West,281,0.0,0.0,92,0.00,,,0.00,Wunderground v.1.15,2013-02-07 15:39:00,
2013-02-08 02:44:00,60.2,57.9,30.00,West,280,0.0,0.0,92,0.00,,,0.00,Wunderground v.1.15,2013-02-07 15:44:00,
2013-02-08 02:49:00,60.1,57.8,30.00,West,280,0.0,0.0,92,0.00,,,0.00,Wunderground v.1.15,2013-02-07 15:49:00,
2013-02-08 02:54:00,60.0,57.7,30.00,West,280,0.0,0.0,92,0.00,,,0.00,Wunderground v.1.15,2013-02-07 15:54:00,
2013-02-08 02:59:00,59.7,57.4,30.00,West,280,0.0,0.0,92,0.00,,,0.00,Wunderground v.1.15,2013-02-07 15:59:00,
2013-02-08 03:04:00,59.6,57.3,30.00,West,280,0.0,0.0,92,0.00,,,0.00,Wunderground v.1.15,2013-02-07 16:04:00,
2013-02-08 03:09:00,59.5,57.2,30.00,West,281,0.0,0.0,92,0.00,,,0.00,Wunderground v.1.15,2013-02-07 16:09:00,
2013-02-08 03:14:00,59.3,57.0,30.00,West,280,0.0,0.0,92,0.00,,,0.00,Wunderground v.1.15,2013-02-07 16:14:00,
2013-02-08 03:19:00,59.1,56.8,30.00,West,281,0.0,0.0,92,0.00,,,0.00,Wunderground v.1.15,2013-02-07 16:19:00,
2013-02-08 03:24:00,59.0,57.0,30.00,West,281,0.0,0.0,93,0.00,,,0.00,Wunderground v.1.15,2013-02-07 16:24:00,
2013-02-08 03:29:00,58.9,56.9,30.00,West,280,0.0,0.0,93,0.00,,,0.00,Wunderground v.1.15,2013-02-07 16:29:00,
2013-02-08 03:34:00,58.8,56.8,30.00,West,281,0.0,0.0,93,0.00,,,0.00,Wunderground v.1.15,2013-02-07 16:34:00,
2013-02-08 03:39:00,58.6,56.6,30.00,West,280,0.0,0.0,93,0.00,,,0.00,Wunderground v.1.15,2013-02-07 16:39:00,
2013-02-08 03:44:00,58.6,56.6,30.00,West,280,0.0,0.0,93,0.00,,,0.00,Wunderground v.1.15,2013-02-07 16:44:00,
2013-02-08 03:49:00,58.8,57.1,30.00,West,280,0.0,0.0,94,0.00,,,0.00,Wunderground v.1.15,2013-02-07 16:49:00,
2013-02-08 03:54:00,58.7,57.0,30.00,West,281,0.0,0.0,94,0.00,,,0.00,Wunderground v.1.15,2013-02-07 16:54:00,
2013-02-08 03:59:00,58.6,56.9,29.99,West,281,0.0,0.0,94,0.00,,,0.00,Wunderground v.1.15,2013-02-07 16:59:00,
2013-02-08 04:04:00,58.6,56.9,29.99,West,280,0.0,0.0,94,0.00,,,0.00,Wunderground v.1.15,2013-02-07 17:04:00,
2013-02-08 04:09:00,58.7,57.0,29.99,West,280,0.0,0.0,94,0.00,,,0.00,Wunderground v.1.15,2013-02-07 17:09:00,
2013-02-08 04:14:00,58.7,57.0,29.99,West,275,0.0,0.0,94,0.00,,,0.00,Wunderground v.1.15,2013-02-07 17:14:00,
2013-02-08 04:19:00,58.5,56.8,29.99,West,274,0.0,0.0,94,0.00,,,0.00,Wunderground v.1.15,2013-02-07 17:19:00,
2013-02-08 04:24:00,58.4,56.7,29.99,West,275,0.0,0.0,94,0.00,,,0.00,Wunderground v.1.15,2013-02-07 17:24:00,
2013-02-08 04:29:00,58.3,56.6,29.99,West,274,0.0,0.0,94,0.00,,,0.00,Wunderground v.1.15,2013-02-07 17:29:00,
2013-02-08 04:34:00,58.2,56.5,29.99,West,274,0.0,0.0,94,0.00,,,0.00,Wunderground v.1.15,2013-02-07 17:34:00,
2013-02-08 04:39:00,58.1,56.4,29.99,West,275,0.0,0.0,94,0.00,,,0.00,Wunderground v.1.15,2013-02-07 17:39:00,
2013-02-08 04:44:00,58.0,56.3,29.99,West,274,0.0,0.0,94,0.00,,,0.00,Wunderground v.1.15,2013-02-07 17:44:00,
2013-02-08 04:49:00,58.1,56.4,29.99,West,274,0.0,0.0,94,0.00,,,0.00,Wunderground v.1.15,2013-02-07 17:49:00,
2013-02-08 04:54:00,58.1,56.4,29.99,West,275,0.0,0.0,94,0.00,,,0.00,Wunderground v.1.15,2013-02-07 17:54:00,
2013-02-08 04:59:00,57.9,56.2,29.99,West,275,0.0,0.0,94,0.00,,,0.00,Wunderground v.1.15,2013-02-07 17:59:00,
2013-02-08 05:04:00,57.6,55.9,29.99,West,274,0.0,0.0,94,0.00,,,0.00,Wunderground v.1.15,2013-02-07 18:04:00,
2013-02-08 05:09:00,57.7,56.3,29.99,West,275,0.0,0.0,95,0.00,,,0.00,Wunderground v.1.15,2013-02-07 18:09:00,
2013-02-08 05:14:00,57.6,56.2,30.00,West,275,0.0,0.0,95,0.00,,,0.00,Wunderground v.1.15,2013-02-07 18:14:00,
2013-02-08 05:19:00,57.5,56.1,30.00,West,275,0.0,0.0,95,0.00,,,0.00,Wunderground v.1.15,2013-02-07 18:19:00,
2013-02-08 05:24:00,57.4,56.0,30.00,West,274,0.0,0.0,95,0.00,,,0.00,Wunderground v.1.15,2013-02-07 18:24:00,
2013-02-08 05:30:00,57.2,55.8,30.00,West,275,0.0,0.0,95,0.00,,,0.00,Wunderground v.1.15,2013-02-07 18:30:00,
2013-02-08 05:35:00,57.0,55.3,30.00,West,275,0.0,0.0,94,0.00,,,0.00,Wunderground v.1.15,2013-02-07 18:35:00,
2013-02-08 05:40:00,56.7,55.0,30.00,West,275,0.0,0.0,94,0.00,,,0.00,Wunderground v.1.15,2013-02-07 18:40:00,
2013-02-08 05:45:00,57.0,55.6,30.00,West,275,0.0,0.0,95,0.00,,,0.00,Wunderground v.1.15,2013-02-07 18:45:00,
2013-02-08 05:50:00,57.0,55.6,30.00,West,275,0.0,0.0,95,0.00,,,0.00,Wunderground v.1.15,2013-02-07 18:50:00,
2013-02-08 05:55:00,56.9,55.5,30.00,West,275,0.0,0.0,95,0.00,,,0.00,Wunderground v.1.15,2013-02-07 18:55:00,
2013-02-08 06:00:00,57.0,55.6,30.00,West,274,0.0,0.0,95,0.00,,,0.00,Wunderground v.1.15,2013-02-07 19:00:00,
2013-02-08 06:05:00,57.0,55.6,30.00,West,275,0.0,0.0,95,0.00,,,0.00,Wunderground v.1.15,2013-02-07 19:05:00,
2013-02-08 06:10:00,57.0,55.6,30.00,West,274,0.0,0.0,95,0.00,,,0.00,Wunderground v.1.15,2013-02-07 19:10:00,
2013-02-08 06:15:00,56.9,55.5,30.01,West,274,0.0,0.0,95,0.00,,,0.00,Wunderground v.1.15,2013-02-07 19:15:00,
2013-02-08 06:20:00,56.7,55.3,30.01,West,275,0.0,0.0,95,0.00,,,0.00,Wunderground v.1.15,2013-02-07 19:20:00,
2013-02-08 06:25:00,56.6,55.2,30.01,West,275,0.0,0.0,95,0.00,,,0.00,Wunderground v.1.15,2013-02-07 19:25:00,
2013-02-08 06:30:00,56.5,55.1,30.01,West,275,0.0,0.0,95,0.00,,,0.00,Wunderground v.1.15,2013-02-07 19:30:00,
2013-02-08 06:35:00,56.3,54.9,30.02,West,274,0.0,0.0,95,0.00,,,0.00,Wunderground v.1.15,2013-02-07 19:35:00,
2013-02-08 06:40:00,56.3,55.2,30.02,West,275,0.0,0.0,96,0.00,,,0.00,Wunderground v.1.15,2013-02-07 19:40:00,
2013-02-08 06:45:00,56.2,54.8,30.02,West,275,0.0,0.0,95,0.00,,,0.00,Wunderground v.1.15,2013-02-07 19:45:00,
2013-02-08 06:50:00,56.3,55.2,30.02,West,275,0.0,0.0,96,0.00,,,0.00,Wunderground v.1.15,2013-02-07 19:50:00,
2013-02-08 06:55:00,56.8,55.7,30.02,West,274,0.0,0.0,96,0.00,,,0.00,Wunderground v.1.15,2013-02-07 19:55:00,
2013-02-08 07:00:00,57.7,56.9,30.02,West,274,0.0,0.0,97,0.00,,,0.00,Wunderground v.1.15,2013-02-07 20:00:00,
2013-02-08 07:05:00,59.2,58.3,30.03,West,274,0.0,0.0,97,0.00,,,0.00,Wunderground v.1.15,2013-02-07 20:05:00,
2013-02-08 07:10:00,60.9,60.0,30.03,West,275,0.0,0.0,97,0.00,,,0.00,Wunderground v.1.15,2013-02-07 20:10:00,
2013-02-08 07:15:00,61.0,60.1,30.03,West,274,0.0,0.0,97,0.00,,,0.00,Wunderground v.1.15,2013-02-07 20:15:00,
2013-02-08 07:21:00,61.0,60.1,30.03,North,-999,0.0,0.0,97,0.00,,,-99.99,WeatherLink 5.9.3,2013-02-07 20:21:00,
2013-02-08 07:26:00,62.8,61.9,30.04,West,274,0.0,0.0,97,0.00,,,0.00,Wunderground v.1.15,2013-02-07 20:26:00,
2013-02-08 07:31:00,63.3,62.4,30.04,West,274,0.0,0.0,97,0.00,,,0.00,Wunderground v.1.15,2013-02-07 20:31:00,
2013-02-08 07:36:00,63.2,60.8,30.04,West,273,0.0,1.0,92,0.00,,,0.00,Wunderground v.1.15,2013-02-07 20:36:00,
2013-02-08 07:42:00,61.5,60.6,30.04,North,-999,0.0,0.0,97,0.00,,,-99.99,WeatherLink 5.9.3,2013-02-07 20:42:00,
2013-02-08 07:47:00,63.8,60.8,30.04,West,276,0.0,1.0,90,0.00,,,0.00,Wunderground v.1.15,2013-02-07 20:47:00,
2013-02-08 07:52:00,64.5,60.5,30.04,West,262,0.0,1.0,87,0.00,,,0.00,Wunderground v.1.15,2013-02-07 20:52:00,
2013-02-08 07:57:00,65.4,61.1,30.05,WNW,287,0.0,1.0,86,0.00,,,0.00,Wunderground v.1.15,2013-02-07 20:57:00,
2013-02-08 08:02:00,65.9,61.3,30.05,WSW,238,0.0,0.0,85,0.00,,,0.00,Wunderground v.1.15,2013-02-07 21:02:00,
2013-02-08 08:07:00,66.7,61.7,30.05,WNW,290,0.0,2.0,84,0.00,,,0.00,Wunderground v.1.15,2013-02-07 21:07:00,
2013-02-08 08:12:00,67.6,61.6,30.06,SW,221,0.0,1.0,81,0.00,,,0.00,Wunderground v.1.15,2013-02-07 21:12:00,
2013-02-08 08:17:00,68.0,62.3,30.05,SSW,198,0.0,2.0,82,0.00,,,0.00,Wunderground v.1.15,2013-02-07 21:17:00,
2013-02-08 08:22:00,68.6,62.2,30.06,South,191,1.0,1.0,80,0.00,,,0.00,Wunderground v.1.15,2013-02-07 21:22:00,
2013-02-08 08:27:00,69.4,63.3,30.06,West,273,0.0,1.0,81,0.00,,,0.00,Wunderground v.1.15,2013-02-07 21:27:00,
2013-02-08 08:32:00,70.1,62.6,30.06,SSW,205,0.0,1.0,77,0.00,,,0.00,Wunderground v.1.15,2013-02-07 21:32:00,
2013-02-08 08:37:00,70.4,62.8,30.06,East,96,0.0,1.0,77,0.00,,,0.00,Wunderground v.1.15,2013-02-07 21:37:00,
2013-02-08 08:42:00,71.5,63.5,30.06,East,82,0.0,0.0,76,0.00,,,0.00,Wunderground v.1.15,2013-02-07 21:42:00,
2013-02-08 08:47:00,72.4,63.6,30.06,East,84,0.0,1.0,74,0.00,,,0.00,Wunderground v.1.15,2013-02-07 21:47:00,
2013-02-08 08:52:00,72.7,62.8,30.06,South,175,1.0,2.0,71,0.00,,,0.00,Wunderground v.1.15,2013-02-07 21:52:00,
2013-02-08 08:57:00,72.6,62.7,30.06,SSW,205,0.0,2.0,71,0.00,,,0.00,Wunderground v.1.15,2013-02-07 21:57:00,
2013-02-08 09:02:00,73.0,63.8,30.06,NE,41,0.0,1.0,73,0.00,,,0.00,Wunderground v.1.15,2013-02-07 22:02:00,
2013-02-08 09:07:00,73.9,63.9,30.06,NE,37,1.0,1.0,71,0.00,,,0.00,Wunderground v.1.15,2013-02-07 22:07:00,
2013-02-08 09:12:00,73.9,63.5,30.07,ENE,69,0.0,1.0,70,0.00,,,0.00,Wunderground v.1.15,2013-02-07 22:12:00,
2013-02-08 09:17:00,74.1,63.3,30.07,NNE,32,1.0,3.0,69,0.00,,,0.00,Wunderground v.1.15,2013-02-07 22:17:00,
2013-02-08 09:22:00,74.4,63.1,30.07,NNE,32,0.0,2.0,68,0.00,,,0.00,Wunderground v.1.15,2013-02-07 22:22:00,
2013-02-08 09:27:00,75.2,63.5,30.07,NE,38,1.0,2.0,67,0.00,,,0.00,Wunderground v.1.15,2013-02-07 22:27:00,
2013-02-08 09:32:00,75.3,63.2,30.07,ENE,59,2.0,2.0,66,0.00,,,0.00,Wunderground v.1.15,2013-02-07 22:32:00,
2013-02-08 09:37:00,75.8,64.5,30.07,ENE,75,1.0,2.0,68,0.00,,,0.00,Wunderground v.1.15,2013-02-07 22:37:00,
2013-02-08 09:42:00,76.0,65.5,30.07,ENE,68,0.0,1.0,70,0.00,,,0.00,Wunderground v.1.15,2013-02-07 22:42:00,
2013-02-08 09:47:00,77.0,65.6,30.07,NNE,32,0.0,3.0,68,0.00,,,0.00,Wunderground v.1.15,2013-02-07 22:47:00,
2013-02-08 09:52:00,77.5,64.4,30.07,NNW,342,0.0,2.0,64,0.00,,,0.00,Wunderground v.1.15,2013-02-07 22:52:00,
2013-02-08 09:57:00,78.5,65.3,30.07,WNW,285,2.0,3.0,64,0.00,,,0.00,Wunderground v.1.15,2013-02-07 22:57:00,
2013-02-08 10:02:00,78.6,64.5,30.07,West,276,0.0,2.0,62,0.00,,,0.00,Wunderground v.1.15,2013-02-07 23:02:00,
2013-02-08 10:07:00,78.9,66.1,30.07,NNE,32,3.0,3.0,65,0.00,,,0.00,Wunderground v.1.15,2013-02-07 23:07:00,
2013-02-08 10:12:00,79.2,65.5,30.07,NNE,33,1.0,2.0,63,0.00,,,0.00,Wunderground v.1.15,2013-02-07 23:12:00,
2013-02-08 10:18:00,78.6,64.9,30.07,NW,325,1.0,4.0,63,0.00,,,0.00,Wunderground v.1.15,2013-02-07 23:18:00,
2013-02-08 10:23:00,78.6,64.5,30.07,ESE,117,1.0,3.0,62,0.00,,,0.00,Wunderground v.1.15,2013-02-07 23:23:00,
2013-02-08 10:28:00,78.7,65.0,30.07,NNE,24,0.0,3.0,63,0.00,,,0.00,Wunderground v.1.15,2013-02-07 23:28:00,
2013-02-08 10:33:00,79.6,67.2,30.07,ENE,77,2.0,4.0,66,0.00,,,0.00,Wunderground v.1.15,2013-02-07 23:33:00,
2013-02-08 10:38:00,80.6,65.4,30.07,ENE,66,0.0,4.0,60,0.00,,,0.00,Wunderground v.1.15,2013-02-07 23:38:00,
2013-02-08 10:43:00,81.0,66.3,30.07,NE,38,1.0,2.0,61,0.00,,,0.00,Wunderground v.1.15,2013-02-07 23:43:00,
2013-02-08 10:48:00,81.2,66.5,30.07,NNE,13,0.0,3.0,61,0.00,,,0.00,Wunderground v.1.15,2013-02-07 23:48:00,
2013-02-08 10:53:00,81.6,65.9,30.07,NNE,31,5.0,6.0,59,0.00,,,0.00,Wunderground v.1.15,2013-02-07 23:53:00,
2013-02-08 10:58:00,82.1,66.4,30.07,NNW,340,3.0,6.0,59,0.00,,,0.00,Wunderground v.1.15,2013-02-07 23:58:00,
2013-02-08 11:03:00,82.2,66.0,30.07,NNW,343,2.0,3.0,58,0.00,,,0.00,Wunderground v.1.15,2013-02-08 00:03:00,
2013-02-08 11:08:00,81.9,65.7,30.07,NNE,19,2.0,4.0,58,0.00,,,0.00,Wunderground v.1.15,2013-02-08 00:08:00,
2013-02-08 11:13:00,82.3,67.5,30.07,SW,220,0.0,2.0,61,0.00,,,0.00,Wunderground v.1.15,2013-02-08 00:13:00,
2013-02-08 11:18:00,83.1,67.3,30.06,NNW,343,1.0,5.0,59,0.00,,,0.00,Wunderground v.1.15,2013-02-08 00:18:00,
2013-02-08 11:23:00,83.2,65.9,30.06,North,10,2.0,3.0,56,0.00,,,0.00,Wunderground v.1.15,2013-02-08 00:23:00,
2013-02-08 11:28:00,83.2,65.4,30.06,ENE,61,1.0,8.0,55,0.00,,,0.00,Wunderground v.1.15,2013-02-08 00:28:00,
2013-02-08 11:34:00,83.2,65.4,30.06,NNE,27,3.0,4.0,55,0.00,,,0.00,Wunderground v.1.15,2013-02-08 00:34:00,
2013-02-08 11:39:00,83.5,65.1,30.06,North,350,3.0,4.0,54,0.00,,,0.00,Wunderground v.1.15,2013-02-08 00:39:00,
2013-02-08 11:44:00,84.0,67.1,30.05,NNE,25,3.0,3.0,57,0.00,,,0.00,Wunderground v.1.15,2013-02-08 00:44:00,
2013-02-08 11:51:00,83.6,65.2,30.06,NNE,22,2.0,4.0,54,0.00,,,-99.99,WeatherLink 5.9.3,2013-02-08 00:51:00,
2013-02-08 11:56:00,83.8,65.9,30.05,NNE,23,3.0,4.0,55,0.00,,,0.00,Wunderground v.1.15,2013-02-08 00:56:00,
2013-02-08 12:01:00,84.3,67.4,30.05,NE,34,0.0,2.0,57,0.00,,,0.00,Wunderground v.1.15,2013-02-08 01:01:00,
2013-02-08 12:07:00,84.9,64.8,30.05,South,174,2.0,2.0,51,0.00,,,0.00,Wunderground v.1.15,2013-02-08 01:07:00,
2013-02-08 12:12:00,85.2,65.6,30.05,NW,314,1.0,4.0,52,0.00,,,0.00,Wunderground v.1.15,2013-02-08 01:12:00,
2013-02-08 12:17:00,85.2,65.6,30.05,NNW,343,1.0,4.0,52,0.00,,,0.00,Wunderground v.1.15,2013-02-08 01:17:00,
2013-02-08 12:22:00,85.5,66.4,30.04,NNE,12,0.0,2.0,53,0.00,,,0.00,Wunderground v.1.15,2013-02-08 01:22:00,
2013-02-08 12:27:00,86.1,65.3,30.04,NNE,25,2.0,5.0,50,0.00,,,0.00,Wunderground v.1.15,2013-02-08 01:27:00,
2013-02-08 12:32:00,86.0,65.8,30.04,NNW,335,0.0,3.0,51,0.00,,,0.00,Wunderground v.1.15,2013-02-08 01:32:00,
2013-02-08 12:37:00,86.3,66.6,30.04,NNE,33,0.0,4.0,52,0.00,,,0.00,Wunderground v.1.15,2013-02-08 01:37:00,
2013-02-08 12:42:00,86.6,66.3,30.04,NE,43,5.0,5.0,51,0.00,,,0.00,Wunderground v.1.15,2013-02-08 01:42:00,
2013-02-08 12:47:00,86.5,65.1,30.04,ENE,76,1.0,5.0,49,0.00,,,0.00,Wunderground v.1.15,2013-02-08 01:47:00,
2013-02-08 12:53:00,86.4,66.1,30.03,ENE,58,1.0,5.0,51,0.00,,,0.00,Wunderground v.1.15,2013-02-08 01:53:00,
2013-02-08 12:58:00,87.0,66.7,30.03,North,8,1.0,5.0,51,0.00,,,0.00,Wunderground v.1.15,2013-02-08 01:58:00,
2013-02-08 13:03:00,87.3,66.4,30.03,NE,46,2.0,4.0,50,0.00,,,0.00,Wunderground v.1.15,2013-02-08 02:03:00,
2013-02-08 13:08:00,87.3,65.2,30.03,ESE,113,6.0,6.0,48,0.00,,,0.00,Wunderground v.1.15,2013-02-08 02:08:00,
2013-02-08 13:13:00,87.4,66.5,30.03,NNW,328,4.0,6.0,50,0.00,,,0.00,Wunderground v.1.15,2013-02-08 02:13:00,
2013-02-08 13:18:00,87.5,65.4,30.03,SSE,168,1.0,6.0,48,0.00,,,0.00,Wunderground v.1.15,2013-02-08 02:18:00,
2013-02-08 13:23:00,87.2,66.3,30.02,NE,55,3.0,4.0,50,0.00,,,0.00,Wunderground v.1.15,2013-02-08 02:23:00,
2013-02-08 13:28:00,87.8,66.8,30.02,NE,37,3.0,4.0,50,0.00,,,0.00,Wunderground v.1.15,2013-02-08 02:28:00,
2013-02-08 13:33:00,88.0,65.8,30.02,NW,311,0.0,2.0,48,0.00,,,0.00,Wunderground v.1.15,2013-02-08 02:33:00,
2013-02-08 13:38:00,88.5,66.9,30.02,WSW,246,1.0,4.0,49,0.00,,,0.00,Wunderground v.1.15,2013-02-08 02:38:00,
2013-02-08 13:43:00,88.8,66.6,30.01,NE,38,1.0,3.0,48,0.00,,,0.00,Wunderground v.1.15,2013-02-08 02:43:00,
2013-02-08 13:48:00,89.4,65.9,30.01,ENE,66,1.0,4.0,46,0.00,,,0.00,Wunderground v.1.15,2013-02-08 02:48:00,
2013-02-08 13:53:00,89.2,63.8,30.01,ENE,73,6.0,6.0,43,0.00,,,0.00,Wunderground v.1.15,2013-02-08 02:53:00,
2013-02-08 13:58:00,88.9,62.8,30.01,NE,34,1.0,7.0,42,0.00,,,0.00,Wunderground v.1.15,2013-02-08 02:58:00,
2013-02-08 14:03:00,89.2,64.4,30.01,NNE,27,2.0,6.0,44,0.00,,,0.00,Wunderground v.1.15,2013-02-08 03:03:00,
2013-02-08 14:08:00,89.7,63.6,30.01,East,87,2.0,6.0,42,0.00,,,0.00,Wunderground v.1.15,2013-02-08 03:08:00,
2013-02-08 14:13:00,89.8,63.6,30.00,ENE,69,1.0,5.0,42,0.00,,,0.00,Wunderground v.1.15,2013-02-08 03:13:00,
2013-02-08 14:18:00,89.8,65.0,30.00,NNW,328,1.0,5.0,44,0.00,,,0.00,Wunderground v.1.15,2013-02-08 03:18:00,
2013-02-08 14:23:00,90.8,65.2,30.00,NW,323,2.0,3.0,43,0.00,,,0.00,Wunderground v.1.15,2013-02-08 03:23:00,
2013-02-08 14:28:00,91.1,62.0,30.00,NE,34,0.0,3.0,38,0.00,,,0.00,Wunderground v.1.15,2013-02-08 03:28:00,
2013-02-08 14:33:00,90.8,60.9,30.00,NE,55,2.0,3.0,37,0.00,,,0.00,Wunderground v.1.15,2013-02-08 03:33:00,
2013-02-08 14:38:00,91.0,61.1,30.00,NNW,330,0.0,3.0,37,0.00,,,0.00,Wunderground v.1.15,2013-02-08 03:38:00,
2013-02-08 14:43:00,91.7,63.2,29.99,NNE,20,1.0,4.0,39,0.00,,,0.00,Wunderground v.1.15,2013-02-08 03:43:00,
2013-02-08 14:48:00,92.3,61.5,29.99,WSW,255,1.0,4.0,36,0.00,,,0.00,Wunderground v.1.15,2013-02-08 03:48:00,
2013-02-08 14:53:00,92.0,57.9,29.99,NE,40,1.0,3.0,32,0.00,,,0.00,Wunderground v.1.15,2013-02-08 03:53:00,
2013-02-08 14:58:00,91.8,61.8,29.99,SE,136,1.0,5.0,37,0.00,,,0.00,Wunderground v.1.15,2013-02-08 03:58:00,
2013-02-08 15:03:00,92.1,60.5,29.99,WSW,246,2.0,3.0,35,0.00,,,0.00,Wunderground v.1.15,2013-02-08 04:03:00,
2013-02-08 15:08:00,92.0,60.4,29.98,NW,315,0.0,5.0,35,0.00,,,0.00,Wunderground v.1.15,2013-02-08 04:08:00,
2013-02-08 15:13:00,92.0,58.8,29.98,ENE,75,1.0,3.0,33,0.00,,,0.00,Wunderground v.1.15,2013-02-08 04:13:00,
2013-02-08 15:18:00,91.9,58.7,29.98,NNE,21,1.0,3.0,33,0.00,,,0.00,Wunderground v.1.15,2013-02-08 04:18:00,
2013-02-08 15:23:00,92.1,60.5,29.98,SE,129,1.0,4.0,35,0.00,,,0.00,Wunderground v.1.15,2013-02-08 04:23:00,
2013-02-08 15:28:00,92.4,59.1,29.98,ENE,66,1.0,4.0,33,0.00,,,0.00,Wunderground v.1.15,2013-02-08 04:28:00,
2013-02-08 15:33:00,92.5,60.0,29.97,North,352,1.0,2.0,34,0.00,,,0.00,Wunderground v.1.15,2013-02-08 04:33:00,
2013-02-08 15:38:00,92.9,59.6,29.97,NE,44,2.0,3.0,33,0.00,,,0.00,Wunderground v.1.15,2013-02-08 04:38:00,
2013-02-08 15:43:00,92.7,57.6,29.97,ENE,62,2.0,4.0,31,0.00,,,0.00,Wunderground v.1.15,2013-02-08 04:43:00,
2013-02-08 15:48:00,92.9,59.6,29.97,SSE,167,1.0,4.0,33,0.00,,,0.00,Wunderground v.1.15,2013-02-08 04:48:00,
2013-02-08 15:53:00,93.3,58.2,29.97,ENE,75,3.0,5.0,31,0.00,,,0.00,Wunderground v.1.15,2013-02-08 04:53:00,
2013-02-08 15:58:00,93.0,58.8,29.97,ENE,63,2.0,5.0,32,0.00,,,0.00,Wunderground v.1.15,2013-02-08 04:58:00,
2013-02-08 16:00:00,93.1,59.7,29.97,NNE,30,1.0,5.0,33,0.00,,,0.00,Wunderground v.1.15,2013-02-08 05:00:00,
2013-02-08 16:05:00,93.0,60.5,29.97,NE,40,2.0,6.0,34,0.00,,,0.00,Wunderground v.1.15,2013-02-08 05:05:00,
2013-02-08 16:10:00,92.9,60.4,29.97,ENE,61,2.0,3.0,34,0.00,,,0.00,Wunderground v.1.15,2013-02-08 05:10:00,
2013-02-08 16:16:00,93.0,61.3,29.97,ENE,78,4.0,4.0,35,0.00,,,0.00,Wunderground v.1.15,2013-02-08 05:16:00,
2013-02-08 16:21:00,92.7,61.8,29.97,SSE,148,0.0,2.0,36,0.00,,,0.00,Wunderground v.1.15,2013-02-08 05:21:00,
2013-02-08 16:26:00,92.5,60.0,29.96,NNW,346,2.0,6.0,34,0.00,,,0.00,Wunderground v.1.15,2013-02-08 05:26:00,
2013-02-08 16:31:00,92.4,61.6,29.96,East,92,1.0,3.0,36,0.00,,,0.00,Wunderground v.1.15,2013-02-08 05:31:00,
2013-02-08 16:36:00,92.0,61.2,29.96,NE,45,3.0,6.0,36,0.00,,,0.00,Wunderground v.1.15,2013-02-08 05:36:00,
2013-02-08 16:41:00,91.7,61.0,29.96,SE,132,2.0,3.0,36,0.00,,,0.00,Wunderground v.1.15,2013-02-08 05:41:00,
2013-02-08 16:46:00,91.8,61.0,29.96,NE,45,2.0,4.0,36,0.00,,,0.00,Wunderground v.1.15,2013-02-08 05:46:00,
2013-02-08 16:51:00,92.1,60.5,29.96,NNE,32,1.0,2.0,35,0.00,,,0.00,Wunderground v.1.15,2013-02-08 05:51:00,
2013-02-08 16:56:00,92.3,61.5,29.96,East,83,2.0,4.0,36,0.00,,,0.00,Wunderground v.1.15,2013-02-08 05:56:00,
2013-02-08 17:01:00,92.3,61.5,29.96,NNE,22,1.0,4.0,36,0.00,,,-99.99,WeatherLink 5.9.3,2013-02-08 06:01:00,
2013-02-08 17:06:00,92.5,61.7,29.95,NE,48,3.0,3.0,36,0.00,,,0.00,Wunderground v.1.15,2013-02-08 06:06:00,
2013-02-08 17:11:00,92.4,60.8,29.95,ESE,110,0.0,2.0,35,0.00,,,0.00,Wunderground v.1.15,2013-02-08 06:11:00,
2013-02-08 17:16:00,92.1,61.3,29.95,ENE,63,3.0,6.0,36,0.00,,,0.00,Wunderground v.1.15,2013-02-08 06:16:00,
2013-02-08 17:21:00,91.9,61.1,29.96,ENE,71,1.0,2.0,36,0.00,,,0.00,Wunderground v.1.15,2013-02-08 06:21:00,
2013-02-08 17:26:00,91.6,60.1,29.96,NNE,29,1.0,6.0,35,0.00,,,0.00,Wunderground v.1.15,2013-02-08 06:26:00,
2013-02-08 17:31:00,91.6,61.6,29.95,ENE,60,0.0,2.0,37,0.00,,,0.00,Wunderground v.1.15,2013-02-08 06:31:00,
2013-02-08 17:36:00,92.3,61.5,29.95,NNE,20,2.0,3.0,36,0.00,,,0.00,Wunderground v.1.15,2013-02-08 06:36:00,
2013-02-08 17:41:00,92.0,62.8,29.96,ENE,76,4.0,4.0,38,0.00,,,0.00,Wunderground v.1.15,2013-02-08 06:41:00,
2013-02-08 17:46:00,91.6,62.4,29.96,East,94,3.0,7.0,38,0.00,,,0.00,Wunderground v.1.15,2013-02-08 06:46:00,
2013-02-08 17:51:00,90.9,63.2,29.96,NE,37,1.0,3.0,40,0.00,,,0.00,Wunderground v.1.15,2013-02-08 06:51:00,
2013-02-08 17:56:00,90.6,62.3,29.96,NE,38,4.0,4.0,39,0.00,,,0.00,Wunderground v.1.15,2013-02-08 06:56:00,
2013-02-08 18:02:00,90.1,62.5,29.96,ESE,117,3.0,4.0,40,0.00,,,0.00,Wunderground v.1.15,2013-02-08 07:02:00,
2013-02-08 18:07:00,89.9,62.3,29.96,NE,35,2.0,4.0,40,0.00,,,0.00,Wunderground v.1.15,2013-02-08 07:07:00,
2013-02-08 18:13:00,89.6,62.8,29.96,ENE,68,5.0,5.0,41,0.00,,,0.00,Wunderground v.1.15,2013-02-08 07:13:00,
2013-02-08 18:18:00,89.4,61.9,29.96,NNE,32,4.0,5.0,40,0.00,,,0.00,Wunderground v.1.15,2013-02-08 07:18:00,
2013-02-08 18:24:00,89.2,61.7,29.96,NNE,31,1.0,4.0,40,0.00,,,0.00,Wunderground v.1.15,2013-02-08 07:24:00,
2013-02-08 18:28:00,89.2,61.0,29.96,NE,48,0.0,4.0,39,0.00,,,0.00,Wunderground v.1.15,2013-02-08 07:28:00,
2013-02-08 18:34:00,89.0,61.5,29.96,East,80,2.0,4.0,40,0.00,,,0.00,Wunderground v.1.15,2013-02-08 07:34:00,
2013-02-08 18:39:00,88.9,61.5,29.96,NE,42,2.0,5.0,40,0.00,,,0.00,Wunderground v.1.15,2013-02-08 07:39:00,
2013-02-08 18:44:00,88.7,60.6,29.96,East,84,2.0,4.0,39,0.00,,,0.00,Wunderground v.1.15,2013-02-08 07:44:00,
2013-02-08 18:49:00,88.5,60.4,29.96,NE,34,3.0,4.0,39,0.00,,,0.00,Wunderground v.1.15,2013-02-08 07:49:00,
2013-02-08 18:54:00,88.3,60.9,29.96,NE,49,1.0,2.0,40,0.00,,,0.00,Wunderground v.1.15,2013-02-08 07:54:00,
2013-02-08 19:00:00,88.0,60.7,29.96,East,90,1.0,4.0,40,0.00,,,0.00,Wunderground v.1.15,2013-02-08 08:00:00,
2013-02-08 19:05:00,87.5,60.9,29.97,ENE,60,1.0,2.0,41,0.00,,,0.00,Wunderground v.1.15,2013-02-08 08:05:00,
2013-02-08 19:11:00,87.9,60.6,29.96,NE,45,2.0,4.0,40,0.00,,,-99.99,WeatherLink 5.9.3,2013-02-08 08:11:00,
2013-02-08 19:16:00,86.5,60.0,29.97,ENE,72,1.0,2.0,41,0.00,,,0.00,Wunderground v.1.15,2013-02-08 08:16:00,
2013-02-08 19:21:00,86.0,60.9,29.97,NE,46,1.0,1.0,43,0.00,,,0.00,Wunderground v.1.15,2013-02-08 08:21:00,
2013-02-08 19:26:00,85.5,61.1,29.97,NE,34,1.0,3.0,44,0.00,,,0.00,Wunderground v.1.15,2013-02-08 08:26:00,
2013-02-08 19:31:00,85.0,61.9,29.97,ENE,58,0.0,1.0,46,0.00,,,0.00,Wunderground v.1.15,2013-02-08 08:31:00,
2013-02-08 19:37:00,84.4,62.0,29.98,NE,43,1.0,2.0,47,0.00,,,0.00,Wunderground v.1.15,2013-02-08 08:37:00,
2013-02-08 19:42:00,83.9,63.3,29.98,ENE,73,2.0,2.0,50,0.00,,,0.00,Wunderground v.1.15,2013-02-08 08:42:00,
2013-02-08 19:47:00,83.4,63.9,29.98,East,101,1.0,3.0,52,0.00,,,0.00,Wunderground v.1.15,2013-02-08 08:47:00,
2013-02-08 19:52:00,82.8,65.5,29.98,NE,38,2.0,2.0,56,0.00,,,0.00,Wunderground v.1.15,2013-02-08 08:52:00,
2013-02-08 19:57:00,82.4,66.1,29.98,ENE,68,1.0,8.0,58,0.00,,,0.00,Wunderground v.1.15,2013-02-08 08:57:00,
2013-02-08 20:02:00,82.4,65.6,29.98,NE,45,3.0,8.0,57,0.00,,,-99.99,WeatherLink 5.9.3,2013-02-08 09:02:00,
2013-02-08 20:07:00,81.5,66.3,29.98,East,98,2.0,6.0,60,0.00,,,0.00,Wunderground v.1.15,2013-02-08 09:07:00,
2013-02-08 20:12:00,81.2,66.5,29.99,NE,46,2.0,6.0,61,0.00,,,0.00,Wunderground v.1.15,2013-02-08 09:12:00,
2013-02-08 20:17:00,80.8,66.6,29.99,East,98,1.0,6.0,62,0.00,,,0.00,Wunderground v.1.15,2013-02-08 09:17:00,
2013-02-08 20:22:00,80.4,66.6,29.99,NNE,30,1.0,2.0,63,0.00,,,0.00,Wunderground v.1.15,2013-02-08 09:22:00,
2013-02-08 20:27:00,80.1,65.9,29.99,ENE,70,1.0,7.0,62,0.00,,,0.00,Wunderground v.1.15,2013-02-08 09:27:00,
2013-02-08 20:32:00,79.8,66.1,29.99,NE,52,0.0,4.0,63,0.00,,,0.00,Wunderground v.1.15,2013-02-08 09:32:00,
2013-02-08 20:37:00,79.6,65.9,29.99,NE,52,1.0,4.0,63,0.00,,,0.00,Wunderground v.1.15,2013-02-08 09:37:00,
2013-02-08 20:42:00,79.2,66.0,30.00,NE,46,3.0,4.0,64,0.00,,,0.00,Wunderground v.1.15,2013-02-08 09:42:00,
2013-02-08 20:47:00,78.9,65.7,30.00,NE,56,3.0,6.0,64,0.00,,,0.00,Wunderground v.1.15,2013-02-08 09:47:00,
2013-02-08 20:52:00,78.6,65.4,30.00,NE,45,2.0,3.0,64,0.00,,,0.00,Wunderground v.1.15,2013-02-08 09:52:00,
2013-02-08 20:57:00,78.3,65.6,30.00,ENE,60,3.0,5.0,65,0.00,,,0.00,Wunderground v.1.15,2013-02-08 09:57:00,
2013-02-08 21:02:00,78.0,65.3,30.00,NE,53,1.0,4.0,65,0.00,,,0.00,Wunderground v.1.15,2013-02-08 10:02:00,
2013-02-08 21:07:00,77.7,65.4,30.00,NE,38,4.0,7.0,66,0.00,,,0.00,Wunderground v.1.15,2013-02-08 10:07:00,
2013-02-08 21:12:00,77.4,65.6,30.00,SSE,155,2.0,2.0,67,0.00,,,0.00,Wunderground v.1.15,2013-02-08 10:12:00,
2013-02-08 21:17:00,77.0,65.2,30.00,ENE,71,2.0,3.0,67,0.00,,,0.00,Wunderground v.1.15,2013-02-08 10:17:00,
2013-02-08 21:22:00,76.6,64.8,30.01,ENE,69,0.0,3.0,67,0.00,,,0.00,Wunderground v.1.15,2013-02-08 10:22:00,
2013-02-08 21:27:00,76.4,64.6,30.01,South,180,1.0,3.0,67,0.00,,,0.00,Wunderground v.1.15,2013-02-08 10:27:00,
2013-02-08 21:32:00,76.1,64.8,30.01,SE,128,1.0,3.0,68,0.00,,,0.00,Wunderground v.1.15,2013-02-08 10:32:00,
2013-02-08 21:37:00,75.9,65.0,30.01,SSW,203,0.0,3.0,69,0.00,,,0.00,Wunderground v.1.15,2013-02-08 10:37:00,
2013-02-08 21:43:00,75.5,64.6,30.01,South,184,1.0,1.0,69,0.00,,,0.00,Wunderground v.1.15,2013-02-08 10:43:00,
2013-02-08 21:48:00,75.3,64.4,30.01,ESE,122,0.0,2.0,69,0.00,,,0.00,Wunderground v.1.15,2013-02-08 10:48:00,
2013-02-08 21:53:00,74.9,64.0,30.01,SSE,160,2.0,2.0,69,0.00,,,0.00,Wunderground v.1.15,2013-02-08 10:53:00,
2013-02-08 21:58:00,74.6,64.2,30.02,ESE,120,0.0,2.0,70,0.00,,,0.00,Wunderground v.1.15,2013-02-08 10:58:00,
2013-02-08 22:03:00,74.3,63.9,30.02,ENE,70,0.0,1.0,70,0.00,,,0.00,Wunderground v.1.15,2013-02-08 11:03:00,
2013-02-08 22:08:00,73.9,63.9,30.02,ENE,70,0.0,1.0,71,0.00,,,0.00,Wunderground v.1.15,2013-02-08 11:08:00,
2013-02-08 22:13:00,73.8,63.8,30.02,NE,55,0.0,3.0,71,0.00,,,0.00,Wunderground v.1.15,2013-02-08 11:13:00,
2013-02-08 22:18:00,73.5,63.5,30.02,NE,55,0.0,3.0,71,0.00,,,0.00,Wunderground v.1.15,2013-02-08 11:18:00,
2013-02-08 22:24:00,73.2,63.6,30.02,WSW,254,0.0,1.0,72,0.00,,,0.00,Wunderground v.1.15,2013-02-08 11:24:00,
2013-02-08 22:29:00,73.1,63.9,30.02,South,186,1.0,1.0,73,0.00,,,0.00,Wunderground v.1.15,2013-02-08 11:29:00,
2013-02-08 22:34:00,72.9,63.7,30.02,SSE,157,0.0,1.0,73,0.00,,,0.00,Wunderground v.1.15,2013-02-08 11:34:00,
2013-02-08 22:39:00,72.8,64.0,30.02,ENE,66,0.0,1.0,74,0.00,,,0.00,Wunderground v.1.15,2013-02-08 11:39:00,
2013-02-08 22:44:00,72.6,63.8,30.02,ENE,65,0.0,0.0,74,0.00,,,0.00,Wunderground v.1.15,2013-02-08 11:44:00,
2013-02-08 22:49:00,72.2,63.4,30.02,SW,233,1.0,1.0,74,0.00,,,0.00,Wunderground v.1.15,2013-02-08 11:49:00,
2013-02-08 22:54:00,72.2,63.8,30.02,SSW,193,0.0,2.0,75,0.00,,,0.00,Wunderground v.1.15,2013-02-08 11:54:00,
2013-02-08 22:59:00,72.0,63.6,30.02,SSW,193,0.0,2.0,75,0.00,,,0.00,Wunderground v.1.15,2013-02-08 11:59:00,
2013-02-08 23:04:00,71.7,63.7,30.02,SSW,193,0.0,0.0,76,0.00,,,0.00,Wunderground v.1.15,2013-02-08 12:04:00,
2013-02-08 23:09:00,71.3,63.7,30.02,SSW,210,0.0,1.0,77,0.00,,,0.00,Wunderground v.1.15,2013-02-08 12:09:00,
2013-02-08 23:14:00,71.0,63.8,30.02,SSW,209,0.0,1.0,78,0.00,,,0.00,Wunderground v.1.15,2013-02-08 12:14:00,
2013-02-08 23:19:00,70.9,63.7,30.02,SSW,208,0.0,1.0,78,0.00,,,0.00,Wunderground v.1.15,2013-02-08 12:19:00,
2013-02-08 23:24:00,70.6,63.8,30.02,SSW,208,0.0,0.0,79,0.00,,,0.00,Wunderground v.1.15,2013-02-08 12:24:00,
2013-02-08 23:29:00,70.2,63.7,30.02,SSW,209,0.0,0.0,80,0.00,,,0.00,Wunderground v.1.15,2013-02-08 12:29:00,
2013-02-08 23:34:00,69.8,63.7,30.02,SSW,209,0.0,0.0,81,0.00,,,0.00,Wunderground v.1.15,2013-02-08 12:34:00,
2013-02-08 23:39:00,69.6,63.9,30.02,SSW,209,0.0,0.0,82,0.00,,,0.00,Wunderground v.1.15,2013-02-08 12:39:00,
2013-02-08 23:44:00,69.3,63.6,30.02,SSW,209,0.0,0.0,82,0.00,,,0.00,Wunderground v.1.15,2013-02-08 12:44:00,
2013-02-08 23:49:00,69.0,63.6,30.02,SSW,209,0.0,0.0,83,0.00,,,0.00,Wunderground v.1.15,2013-02-08 12:49:00,
2013-02-08 23:54:00,68.8,63.4,30.02,SSW,209,0.0,1.0,83,0.00,,,0.00,Wunderground v.1.15,2013-02-08 12:54:00,
2013-02-08 23:59:00,68.6,63.6,30.02,SSW,209,0.0,1.0,84,0.00,,,0.00,Wunderground v.1.15,2013-02-08 12:59:00,